Time;durP1;ratioP1;P1;durP2;ratioP2;P2;SDS_P1;SDS_P2;PMS_P1;PMS_P2;Temp;Humidity;BMP_temperature;BMP_pressure;BME280_temperature;BME280_humidity;BME280_pressure;Samples;Min_cycle;Max_cycle;Signal;HPM_P1;HPM_P2
2022/05/27 00:03:21;;;;;;;3.35;1.10;;;;;;;20.48;72.13;101352.50;25686280;23;20317;-60
2022/05/27 00:13:22;;;;;;;1.60;0.80;;;;;;;20.47;72.14;101355.38;25685595;23;20025;-61
2022/05/27 00:23:24;;;;;;;2.33;1.02;;;;;;;20.46;71.78;101372.59;25657163;23;20021;-61
2022/05/27 00:33:25;;;;;;;1.55;0.60;;;;;;;20.42;71.82;101359.38;25684163;23;20043;-61
2022/05/27 00:43:27;;;;;;;1.05;0.80;;;;;;;20.40;71.40;101364.06;25657838;23;20351;-61
2022/05/27 00:53:59;;;;;;;2.25;1.02;;;;;;;20.40;71.11;101376.72;25683268;23;20039;-60
2022/05/27 01:04:02;;;;;;;1.95;0.88;;;;;;;20.38;71.09;101390.41;25656239;23;20020;-61
2022/05/27 01:14:19;;;;;;;2.38;1.40;;;;;;;20.36;70.96;101395.09;25682686;23;20086;-60
2022/05/27 01:25:03;;;;;;;2.83;1.10;;;;;;;20.35;70.83;101406.91;25656792;23;20017;-60
2022/05/27 01:35:28;;;;;;;1.67;0.80;;;;;;;20.16;70.62;101380.69;25654800;23;20024;-60
2022/05/27 01:45:40;;;;;;;1.73;0.90;;;;;;;20.32;70.40;101404.44;25656398;23;20021;-60
2022/05/27 01:55:50;;;;;;;1.90;1.17;;;;;;;20.29;70.22;101420.94;25657742;23;20040;-60
2022/05/27 02:06:06;;;;;;;2.40;0.80;;;;;;;20.05;70.41;101384.34;25656067;23;20067;-60
2022/05/27 02:16:11;;;;;;;2.40;0.98;;;;;;;20.26;70.11;101426.63;25656155;23;20390;-61
2022/05/27 02:26:16;;;;;;;2.90;1.10;;;;;;;20.24;69.91;101423.22;25689416;23;20075;-60
2022/05/27 02:36:22;;;;;;;3.10;1.07;;;;;;;20.25;70.51;101435.75;25688805;23;20028;-60
2022/05/27 02:46:48;;;;;;;0.95;0.68;;;;;;;20.23;70.69;101424.22;25662728;23;20236;-61
2022/05/27 02:56:58;;;;;;;2.60;0.82;;;;;;;20.21;70.87;101428.91;25661429;23;20017;-61
2022/05/27 03:07:10;;;;;;;2.38;0.88;;;;;;;20.20;70.58;101419.97;25637598;23;20066;-60
2022/05/27 03:17:22;;;;;;;1.00;0.75;;;;;;;20.20;70.22;101429.91;25636108;23;20020;-60
2022/05/27 03:27:42;;;;;;;3.45;1.10;;;;;;;20.19;69.64;101422.78;25646289;23;20024;-61
2022/05/27 03:37:49;;;;;;;3.95;0.90;;;;;;;20.17;69.63;101416.66;25673479;23;20025;-61
2022/05/27 03:47:51;;;;;;;1.88;0.80;;;;;;;20.18;69.17;101418.38;25649655;23;20016;-61
2022/05/27 03:57:52;;;;;;;1.85;0.70;;;;;;;20.19;69.02;101417.38;25673075;23;20487;-61
2022/05/27 04:07:54;;;;;;;1.52;0.70;;;;;;;20.20;69.51;101413.69;25672603;23;20025;-61
2022/05/27 04:17:55;;;;;;;2.08;1.02;;;;;;;20.21;69.53;101429.78;25669391;23;20071;-61
2022/05/27 04:27:57;;;;;;;6.10;1.17;;;;;;;20.19;73.33;101433.59;25680577;23;20025;-61
2022/05/27 04:37:58;;;;;;;4.32;1.30;;;;;;;20.16;73.67;101428.47;25683239;23;20028;-61
2022/05/27 04:48:00;;;;;;;3.25;1.02;;;;;;;20.13;73.16;101430.47;25656535;23;20036;-61
2022/05/27 04:58:01;;;;;;;3.03;1.00;;;;;;;20.12;71.66;101442.28;25681974;23;20028;-60
2022/05/27 05:08:16;;;;;;;2.22;0.85;;;;;;;20.13;71.30;101456.66;25683631;23;20027;-62
2022/05/27 05:18:17;;;;;;;2.17;0.80;;;;;;;20.10;70.04;101462.31;25656988;23;20478;-60
2022/05/27 05:28:18;;;;;;;4.03;1.05;;;;;;;20.10;69.12;101470.41;25680024;23;20017;-61
2022/05/27 05:38:20;;;;;;;1.83;0.82;;;;;;;20.12;68.61;101481.97;25656042;23;20347;-61
2022/05/27 05:48:21;;;;;;;3.55;0.85;;;;;;;20.12;68.16;101482.81;25682456;23;20021;-61
2022/05/27 05:58:23;;;;;;;4.13;1.00;;;;;;;20.12;67.36;101485.53;25676428;23;20021;-61
2022/05/27 06:08:24;;;;;;;1.98;0.90;;;;;;;20.12;66.84;101484.69;25681924;23;20028;-61
2022/05/27 06:18:26;;;;;;;2.15;0.90;;;;;;;20.12;66.71;101490.94;25687727;23;20016;-61
2022/05/27 06:38:47;;;;;;;4.00;1.10;;;;;;;20.16;65.86;101498.75;25658572;23;20025;-60
2022/05/27 06:48:49;;;;;;;2.45;0.75;;;;;;;20.16;65.52;101509.56;25679951;23;20039;-61
2022/05/27 06:58:51;;;;;;;3.58;1.10;;;;;;;20.20;65.46;101513.72;25684556;23;20024;-60
2022/05/27 07:08:52;;;;;;;3.17;1.02;;;;;;;20.24;64.46;101520.56;25675258;23;20024;-60
2022/05/27 07:18:54;;;;;;;2.88;1.17;;;;;;;20.27;63.27;101522.97;25681961;23;20023;-60
2022/05/27 07:28:56;;;;;;;3.15;1.23;;;;;;;20.29;62.16;101527.28;25686869;23;20074;-60
2022/05/27 07:38:57;;;;;;;4.20;1.25;;;;;;;20.34;61.09;101532.28;25684972;23;20024;-60
2022/05/27 07:48:59;;;;;;;3.80;1.15;;;;;;;20.40;59.95;101529.03;25656862;23;20020;-61
2022/05/27 07:59:20;;;;;;;2.78;1.15;;;;;;;20.60;58.78;101520.09;25660632;23;20234;-60
2022/05/27 08:09:22;;;;;;;3.78;1.55;;;;;;;21.44;56.08;101503.34;25682109;23;20466;-60
2022/05/27 08:19:23;;;;;;;4.75;1.77;;;;;;;22.24;52.92;101526.47;25683707;23;20025;-60
2022/05/27 08:29:25;;;;;;;3.90;1.35;;;;;;;23.21;50.37;101534.16;25682548;23;20067;-60
2022/05/27 08:39:27;;;;;;;3.25;1.15;;;;;;;22.79;50.50;101545.63;25681629;23;20012;-60
2022/05/27 08:49:34;;;;;;;3.75;1.25;;;;;;;22.12;51.30;101558.38;25654808;23;20020;-61
2022/05/27 08:59:56;;;;;;;4.43;1.35;;;;;;;21.80;51.88;101567.75;25654102;23;20324;-60
2022/05/27 09:10:02;;;;;;;5.63;1.20;;;;;;;21.65;52.68;101561.94;25646042;23;20028;-60
2022/05/27 09:20:23;;;;;;;2.85;1.27;;;;;;;21.61;52.50;101565.03;25645723;23;20074;-60
2022/05/27 09:30:24;;;;;;;2.40;1.13;;;;;;;21.52;52.37;101564.06;25648737;23;20090;-60
2022/05/27 09:40:38;;;;;;;3.10;1.00;;;;;;;21.51;51.89;101584.88;25675144;23;20024;-60
2022/05/27 09:50:43;;;;;;;4.82;1.48;;;;;;;21.50;52.07;101580.44;25677032;23;20039;-60
2022/05/27 10:00:49;;;;;;;3.78;1.30;;;;;;;21.48;51.91;101582.44;25654678;23;20075;-60
2022/05/27 10:10:56;;;;;;;4.45;1.35;;;;;;;21.48;52.31;101585.16;25658438;23;20020;-60
2022/05/27 10:21:02;;;;;;;5.75;1.10;;;;;;;21.43;52.26;101579.31;25658350;23;20025;-61
2022/05/27 10:31:14;;;;;;;3.97;1.10;;;;;;;21.45;53.04;101604.41;25676941;23;20386;-61
2022/05/27 10:41:25;;;;;;;4.13;1.25;;;;;;;21.44;52.94;101603.56;25669462;23;20013;-60
2022/05/27 10:51:52;;;;;;;4.28;1.13;;;;;;;21.43;52.87;101600.97;25655622;23;20016;-61
2022/05/27 11:02:17;;;;;;;5.82;1.40;;;;;;;21.41;52.31;101602.97;25646771;23;20024;-61
2022/05/27 11:15:10;;;;;;;3.28;0.88;;;;;;;21.43;52.68;101611.81;25649723;23;20071;-61
2022/05/27 11:23:17;;;;;;;4.05;1.17;;;;;;;21.43;53.35;101619.94;25670288;23;20043;-60
2022/05/27 11:33:38;;;;;;;5.65;1.20;;;;;;;21.44;53.52;101602.69;25669398;23;20021;-61
2022/05/27 11:43:46;;;;;;;2.85;0.98;;;;;;;21.34;53.75;101613.50;25668336;23;20017;-61
2022/05/27 11:54:00;;;;;;;2.97;1.38;;;;;;;21.42;53.81;101634.47;25674887;23;20075;-61
2022/05/27 12:04:28;;;;;;;2.17;0.85;;;;;;;21.41;53.74;101624.66;25674353;23;20021;-61
2022/05/27 12:14:38;;;;;;;3.15;1.10;;;;;;;21.39;53.58;101637.47;25651484;23;20463;-61
2022/05/27 12:24:45;;;;;;;2.60;1.00;;;;;;;21.39;53.54;101654.56;25654351;23;20028;-60
2022/05/27 12:34:48;;;;;;;4.57;1.10;;;;;;;21.39;54.23;101637.47;25642482;23;20028;-60
2022/05/27 12:44:50;;;;;;;2.83;1.42;;;;;;;21.36;54.18;101660.28;25666226;23;20017;-61
2022/05/27 12:54:52;;;;;;;2.75;0.93;;;;;;;21.32;54.08;101660.72;25643546;23;20036;-61
2022/05/27 13:04:55;;;;;;;3.08;1.50;;;;;;;21.34;54.35;101662.28;25668717;23;20329;-60
2022/05/27 13:15:06;;;;;;;3.90;1.10;;;;;;;21.39;54.65;101654.56;25668293;23;20024;-61
2022/05/27 13:25:31;;;;;;;3.83;1.40;;;;;;;21.45;54.68;101661.28;25607413;23;20020;-61
2022/05/27 13:35:40;;;;;;;3.22;1.00;;;;;;;21.41;54.78;101663.41;25610965;23;20024;-62
2022/05/27 13:45:55;;;;;;;7.15;1.42;;;;;;;21.52;54.69;101670.56;25676527;23;20351;-61
2022/05/27 13:56:22;;;;;;;5.00;1.48;;;;;;;21.48;54.67;101661.00;25652688;23;20052;-61
2022/05/27 14:06:27;;;;;;;5.30;1.13;;;;;;;21.49;54.24;101675.41;25678593;23;20028;-61
2022/05/27 14:16:31;;;;;;;4.18;1.20;;;;;;;21.46;56.09;101681.13;25615708;23;20029;-61
2022/05/27 14:26:36;;;;;;;3.03;1.00;;;;;;;21.42;55.67;101675.13;25649564;23;20071;-60
2022/05/27 14:36:48;;;;;;;2.28;1.02;;;;;;;21.38;55.78;101696.19;25656420;23;20013;-60
2022/05/27 14:47:13;;;;;;;2.42;1.10;;;;;;;21.37;54.77;101685.53;25681876;23;20500;-60
2022/05/27 14:57:19;;;;;;;3.40;0.95;;;;;;;21.37;54.85;101699.06;25653398;23;20344;-61
2022/05/27 15:07:42;;;;;;;4.20;1.40;;;;;;;21.37;54.18;101691.78;25675873;23;20021;-60
2022/05/27 15:17:52;;;;;;;4.75;1.15;;;;;;;21.37;53.92;101699.91;25668218;23;20024;-60
2022/05/27 15:38:19;;;;;;;6.00;1.45;;;;;;;21.45;54.81;101693.78;25636019;23;20028;-61
2022/05/27 15:48:20;;;;;;;4.60;1.20;;;;;;;21.57;55.30;101679.09;25655415;23;20043;-63
2022/05/27 15:58:22;;;;;;;12.25;3.60;;;;;;;21.74;58.73;101687.59;25660713;23;20080;-62
2022/05/27 16:08:24;;;;;;;24.65;6.47;;;;;;;21.81;60.41;101686.00;25659764;23;20518;-61
2022/05/27 16:18:25;;;;;;;16.83;4.63;;;;;;;21.85;60.22;101682.00;25628096;23;20020;-61
2022/05/27 16:28:26;;;;;;;11.98;3.70;;;;;;;21.85;59.64;101697.41;25622661;23;20351;-61
2022/05/27 16:38:28;;;;;;;8.93;3.28;;;;;;;21.81;59.40;101695.97;25651958;23;20020;-60
2022/05/27 16:48:30;;;;;;;8.05;2.65;;;;;;;21.74;58.59;101690.28;25652840;23;20012;-61
2022/05/27 16:58:31;;;;;;;9.75;2.92;;;;;;;21.70;57.61;101688.88;25660535;23;20059;-63
2022/05/27 17:08:33;;;;;;;9.02;2.58;;;;;;;21.64;58.06;101684.84;25667964;23;20048;-66
2022/05/27 17:18:34;;;;;;;5.20;2.10;;;;;;;21.54;57.30;101679.41;25662172;23;20781;-63
2022/05/27 17:28:36;;;;;;;7.07;1.90;;;;;;;21.54;57.34;101701.06;25668223;23;20032;-61
2022/05/27 17:38:37;;;;;;;8.57;2.70;;;;;;;21.47;57.26;101701.78;25642875;23;20036;-62
2022/05/27 17:58:59;;;;;;;6.10;2.20;;;;;;;21.25;57.34;101684.78;25675692;23;20029;-62
2022/05/27 18:09:01;;;;;;;4.47;1.70;;;;;;;21.31;57.60;101703.19;25679028;23;20021;-63
2022/05/27 18:19:02;;;;;;;4.85;1.65;;;;;;;21.26;57.26;101694.63;25672707;23;20021;-63
2022/05/27 18:29:04;;;;;;;5.50;1.30;;;;;;;21.23;56.69;101703.91;25679309;23;20027;-63
2022/05/27 18:39:05;;;;;;;5.40;1.33;;;;;;;21.21;56.65;101696.88;25675243;23;20184;-62
2022/05/27 18:49:07;;;;;;;4.50;1.35;;;;;;;21.17;56.85;101693.59;25669106;23;20012;-62
2022/05/27 18:59:09;;;;;;;5.10;1.73;;;;;;;21.12;56.37;101694.03;25675164;23;20028;-62
2022/05/27 19:09:11;;;;;;;2.28;1.02;;;;;;;21.08;56.39;101686.31;25674224;23;20044;-62
2022/05/27 19:29:33;;;;;;;6.30;1.20;;;;;;;20.97;56.70;101682.72;25674592;23;20024;-62
2022/05/27 19:39:34;;;;;;;3.75;1.02;;;;;;;20.76;56.88;101660.25;25683003;23;20020;-62
2022/05/27 19:49:36;;;;;;;5.10;1.33;;;;;;;20.68;56.17;101656.38;25676014;23;20051;-62
2022/05/27 19:59:37;;;;;;;3.10;1.02;;;;;;;20.85;55.89;101683.84;25678036;23;20375;-62
2022/05/27 20:09:39;;;;;;;3.05;1.30;;;;;;;20.82;55.81;101694.94;25649026;23;20039;-62
2022/05/27 20:19:40;;;;;;;4.68;1.17;;;;;;;20.79;55.80;101696.03;25676740;23;20078;-62
2022/05/27 20:29:42;;;;;;;3.63;1.13;;;;;;;20.76;55.43;101701.69;25675251;23;20352;-62
2022/05/27 20:39:45;;;;;;;4.50;1.50;;;;;;;20.73;55.37;101699.25;25673596;23;20024;-62
2022/05/27 20:49:48;;;;;;;4.50;1.10;;;;;;;20.62;54.55;101683.97;25671390;23;20538;-62
2022/05/27 20:59:49;;;;;;;3.85;1.13;;;;;;;20.67;54.95;101697.94;25674253;23;20017;-62
2022/05/27 21:09:51;;;;;;;3.13;0.93;;;;;;;20.63;54.52;101680.28;25670845;23;20025;-62
2022/05/27 21:19:54;;;;;;;3.45;1.00;;;;;;;20.59;54.21;101681.53;25670967;23;20494;-62
2022/05/27 21:29:55;;;;;;;1.77;0.90;;;;;;;20.56;54.00;101673.69;25684618;23;20017;-62
2022/05/27 21:39:56;;;;;;;4.30;1.20;;;;;;;20.52;54.38;101666.84;25683606;23;20032;-62
2022/05/27 21:49:58;;;;;;;2.40;0.80;;;;;;;20.49;54.46;101657.16;25685098;23;20107;-62
2022/05/27 22:00:00;;;;;;;1.55;0.70;;;;;;;20.46;53.76;101662.81;25683570;23;20063;-61
2022/05/27 22:20:25;;;;;;;2.80;0.82;;;;;;;20.43;53.54;101639.63;25683573;23;20020;-62
2022/05/27 22:30:27;;;;;;;3.83;1.20;;;;;;;20.39;53.84;101637.31;25654196;23;20521;-62
2022/05/27 22:40:29;;;;;;;3.33;1.33;;;;;;;20.36;54.12;101619.53;25681631;23;20395;-62
2022/05/27 22:50:31;;;;;;;2.40;0.98;;;;;;;20.35;53.58;101607.00;25654441;23;20549;-62
2022/05/27 23:00:32;;;;;;;3.30;1.00;;;;;;;20.33;53.56;101603.56;25686068;23;20379;-62
2022/05/27 23:10:34;;;;;;;3.30;1.20;;;;;;;20.31;53.50;101583.06;25686201;23;20501;-62
2022/05/27 23:20:35;;;;;;;2.28;0.82;;;;;;;20.22;54.11;101571.19;25680038;23;20021;-62
2022/05/27 23:30:39;;;;;;;2.55;1.25;;;;;;;20.26;53.64;101556.41;25681511;23;20087;-62
2022/05/27 23:40:40;;;;;;;2.22;1.08;;;;;;;20.24;53.53;101566.50;25679182;23;20027;-62
2022/05/27 23:50:42;;;;;;;3.90;0.95;;;;;;;20.22;53.70;101565.78;25681418;23;20025;-62
